Oskaloosa, KS (66066)

3:12 AM CDT on July 27, 2016 (GMT -0500)
Lakeridge | | Change Station

Elev 1023 ft 39.16 °N, 95.48 °W | Updated 15 seconds ago

Clear
Clear
70.9 °F
Feels Like 71 °F
N
0.0
Wind Variable Wind from North
Gusts 0.7 mph

Today
High -- | Low -- °F
--% Chance of Precip.
Yesterday
High -- | Low -- °F
Precip. -- in
Pressure 29.96 in
Visibility 9.0 miles
Clouds Clear
Heat Index 71 °F
Dew Point 65 °F
Humidity 82%
Rainfall 0.00 in
Snow Depth Not available.
6:17 AM 8:37 PM
Last Quarter, 46% visible
METAR KLWC 270752Z AUTO 32003KT 9SM CLR 18/17 A2998 RMK AO2 SLP146 T01830172
Pressure 29.96 in
Visibility 9.0 miles
Clouds Clear
Heat Index 71 °F
Dew Point 65 °F
Humidity 82%
Rainfall 0.00 in
Snow Depth Not available.
6:17 AM 8:37 PM
Last Quarter, 46% visible
METAR KLWC 270752Z AUTO 32003KT 9SM CLR 18/17 A2998 RMK AO2 SLP146 T01830172

10-Day Weather Forecast

Almanac

Astronomy

Jul. 27, 2016 Rise Set
Actual Time
Civil Twilight
Nautical Twilight
Astronomical Twilight
Moon
Length of Visible Light
Length of Day
Tomorrow will be .
, % of the Moon is Illuminated

Today's Extremes

State Highs State Lows

Community

WunderPhotos

Upload Photos

1,927,818 photos uploaded!

WunderBlog® & News

Nearby

Air Quality

  Air Quality AQ Index Pollutant
Not available.

Snow Depth

Station Depth Elevation

Earthquake Activity

City Distance Mag. Time & Date
Minimum magnitude displayed is 2.5.

Coastal Water Temperatures

Place Temperature

Stations

Nearby Weather Stations

Station Location Temp. Windchill Dew Point Humidity Wind Precip. Elev Updated Type
                   

Watches & Warnings

There are currently no watches in effect.